Iona Mcallister — WDD4840 — position and weather

sailwx.info

Track history (hours):
 
Tides and Currents Weather Stations Pressure Air Temp Water Temp Dewpoint Dewpoint Depression Visibility Wind Speed Wind Dir Waves Ship Positions

Iona Mcallister

Owner: McAllister Towing & Transportation Co. Inc., Staten Island, NY. More information available from US FCC via Universal Licensing System and Coast Guard Vessel Documentation Center.

Last reported at 2017-Dec-15 19:32 UTC. Time now 2017-Dec-16 05:07 UTC.
Position N 41°49' W 071°24'.

Length 36 m; draft 3 m.

Type: Towing. MMSI: 367149890.

Date/timePositionNaut miles runAvg speedWind from/ knotsBaromVisibWave heightAir tempDewpointWater temp
2017-Dec-15 19:32N 41°49' W 071°24'0 0.1
2017-Dec-15 19:30N 41°49' W 071°24'0 0.0
2017-Dec-15 16:49N 41°49' W 071°24'0 0.0
2017-Dec-15 16:18N 41°49' W 071°24'0 0.0
2017-Dec-15 14:55N 41°49' W 071°24'0 0.0
2017-Dec-15 13:38N 41°49' W 071°24'0 0.0
2017-Dec-15 13:30N 41°49' W 071°24'0 0.0
2017-Dec-15 12:54N 41°49' W 071°24'0 0.0
2017-Dec-15 12:30N 41°49' W 071°24'0 0.0
2017-Dec-15 11:56N 41°49' W 071°24'0 0.0
2017-Dec-15 11:29N 41°49' W 071°24'0 0.0
2017-Dec-15 10:57N 41°49' W 071°24'0 0.0
2017-Dec-15 10:26N 41°49' W 071°24'0 0.0
2017-Dec-15 09:53N 41°49' W 071°24'0 0.0
2017-Dec-15 09:29N 41°49' W 071°24'0 0.0
2017-Dec-15 08:58N 41°49' W 071°24'0 0.0
2017-Dec-15 08:28N 41°49' W 071°24'0 0.0
2017-Dec-15 07:28N 41°49' W 071°24'0 0.0
2017-Dec-15 06:59N 41°49' W 071°24'0 0.0
2017-Dec-15 06:30N 41°49' W 071°24'0 0.0
2017-Dec-15 05:55N 41°49' W 071°24'0 0.0
2017-Dec-15 04:56N 41°49' W 071°24'0 0.0
2017-Dec-15 03:43N 41°49' W 071°24'0 0.0
2017-Dec-15 02:05N 41°49' W 071°24'0 0.0
2017-Dec-15 00:57N 41°49' W 071°24'0 0.0
2017-Dec-15 00:29N 41°49' W 071°24'0 0.0
2017-Dec-14 18:15N 41°49' W 071°24'0 0.3
2017-Dec-14 18:00N 41°49' W 071°24'0 0.0
2017-Dec-14 17:30N 41°49' W 071°24'0 0.0
2017-Dec-14 17:00N 41°49' W 071°24'0 0.0
2017-Dec-14 16:30N 41°49' W 071°24'0 0.0
2017-Dec-14 15:59N 41°49' W 071°24'0 0.0
2017-Dec-14 14:25N 41°49' W 071°24'0 0.0
2017-Dec-14 13:20N 41°49' W 071°24'0 0.0
2017-Dec-14 12:51N 41°49' W 071°24'0 0.0
2017-Dec-14 12:30N 41°49' W 071°24'0 0.0
2017-Dec-14 12:00N 41°49' W 071°24'0 0.0
2017-Dec-14 11:30N 41°49' W 071°24'0 0.0
2017-Dec-14 11:00N 41°49' W 071°24'0 0.0
2017-Dec-14 10:29N 41°49' W 071°24'0 0.0
2017-Dec-14 10:00N 41°49' W 071°24'0 0.0
2017-Dec-14 09:30N 41°49' W 071°24'0 0.0
2017-Dec-14 09:00N 41°49' W 071°24'0 0.0
2017-Dec-14 08:30N 41°49' W 071°24'0 0.0
2017-Dec-14 08:00N 41°49' W 071°24'0 0.0
2017-Dec-14 07:30N 41°49' W 071°24'0 0.0
2017-Dec-14 06:56N 41°49' W 071°24'0 0.0
2017-Dec-14 06:29N 41°49' W 071°24'0 0.0
2017-Dec-14 06:00N 41°49' W 071°24'0 0.0
2017-Dec-14 05:28N 41°49' W 071°24'0 0.0
2017-Dec-14 05:00N 41°49' W 071°24'0 0.0
2017-Dec-14 04:30N 41°49' W 071°24'0 0.0
2017-Dec-14 04:00N 41°49' W 071°24'2 3.5
2017-Dec-14 03:28N 41°47' W 071°23'1 1.4
2017-Dec-14 02:59N 41°47' W 071°22'0 0.0
2017-Dec-14 02:03N 41°47' W 071°22'0 0.0
2017-Dec-14 01:59N 41°47' W 071°22'2 5.2
2017-Dec-14 01:30N 41°49' W 071°24'0 0.0
2017-Dec-14 00:59N 41°49' W 071°24'0 0.0
2017-Dec-14 00:30N 41°49' W 071°24'0 0.0
2017-Dec-13 23:57N 41°49' W 071°24'0 0.0
2017-Dec-13 23:30N 41°49' W 071°24'0 0.0
2017-Dec-13 22:44N 41°49' W 071°24'0 0.0
2017-Dec-13 22:28N 41°49' W 071°24'0 0.0
2017-Dec-13 21:26N 41°49' W 071°24'0 0.0
2017-Dec-13 21:00N 41°49' W 071°24'3 5.6
2017-Dec-13 20:30N 41°46' W 071°22'4 7.6
2017-Dec-13 20:00N 41°43' W 071°20'6 8.3
2017-Dec-13 19:18N 41°37' W 071°23'1 3.8
2017-Dec-13 18:57N 41°37' W 071°24'0 0.0
2017-Dec-13 18:29N 41°37' W 071°24'0 0.0
2017-Dec-13 17:57N 41°37' W 071°24'0 0.0
2017-Dec-13 17:26N 41°37' W 071°24'0 0.0
2017-Dec-13 17:00N 41°37' W 071°24'0 0.0
2017-Dec-13 16:30N 41°37' W 071°24'0 0.0
2017-Dec-13 16:00N 41°37' W 071°24'0 0.0
2017-Dec-13 15:30N 41°37' W 071°24'0 0.0
2017-Dec-13 15:00N 41°37' W 071°24'0 0.0
2017-Dec-13 14:30N 41°37' W 071°24'0 0.0
2017-Dec-13 14:00N 41°37' W 071°24'0 0.2
2017-Dec-13 13:30N 41°37' W 071°24'0 0.0
2017-Dec-13 12:59N 41°37' W 071°24'0 0.0
2017-Dec-13 12:30N 41°37' W 071°24'0 0.0
2017-Dec-13 11:56N 41°37' W 071°24'0 0.3
2017-Dec-13 11:30N 41°37' W 071°24'1 1.0
2017-Dec-13 10:55N 41°36' W 071°24'0 0.8
2017-Dec-13 10:29N 41°36' W 071°24'1 1.2
2017-Dec-13 09:41N 41°37' W 071°24'1 0.0
2017-Dec-12 11:30N 41°36' W 071°24'1 1.1
2017-Dec-12 11:00N 41°37' W 071°24'1 1.3
2017-Dec-12 10:28N 41°36' W 071°24'1 1.5
2017-Dec-12 09:58N 41°37' W 071°24'0 0.0
2017-Dec-12 09:29N 41°37' W 071°24'0 0.0
2017-Dec-12 08:17N 41°37' W 071°24'0 0.0
2017-Dec-12 08:00N 41°37' W 071°24'0 0.0
2017-Dec-12 07:24N 41°37' W 071°24'0 0.0
2017-Dec-12 06:51N 41°37' W 071°24'0 0.0
2017-Dec-12 06:25N 41°37' W 071°24'0 0.0
2017-Dec-12 05:58N 41°37' W 071°24'0 0.0
2017-Dec-12 05:27N 41°37' W 071°24'0 0.0
2017-Dec-12 04:54N 41°37' W 071°24'0 0.0
2017-Dec-12 04:23N 41°37' W 071°24'0 0.0
2017-Dec-12 03:57N 41°37' W 071°24'0 0.0
2017-Dec-12 03:23N 41°37' W 071°24'0 0.0
2017-Dec-12 02:10N 41°37' W 071°24'0 0.0
2017-Dec-12 01:03N 41°37' W 071°24'1 0.0
2017-Dec-11 11:29N 41°36' W 071°24'1 1.3
2017-Dec-11 11:00N 41°37' W 071°24'1 1.4
2017-Dec-11 10:30N 41°36' W 071°24'1 0.1
2017-Dec-10 21:06N 41°35' W 071°24'5 0.4
2017-Dec-10 07:00N 41°37' W 071°18'5 9.1
2017-Dec-10 06:30N 41°42' W 071°19'5 9.2
2017-Dec-10 06:00N 41°45' W 071°23'3 2.0
2017-Dec-10 04:36N 41°48' W 071°24'0 0.0
2017-Dec-09 16:42N 41°48' W 071°23'0 0.0
2017-Dec-09 16:30N 41°48' W 071°23'1 0.1
2017-Dec-09 08:47N 41°47' W 071°23'0 0.7
2017-Dec-09 08:30N 41°47' W 071°22'0 0.0
2017-Dec-08 20:31N 41°47' W 071°22'0 7.7
2017-Dec-08 20:30N 41°47' W 071°22'4 8.7
2017-Dec-08 20:00N 41°43' W 071°20'9 0.4
2017-Dec-07 22:22N 41°34' W 071°19'3 9.5
2017-Dec-07 22:00N 41°38' W 071°18'5 9.3
2017-Dec-07 21:30N 41°42' W 071°20'5 9.1
2017-Dec-07 21:00N 41°46' W 071°22'2 0.4
2017-Dec-07 15:10N 41°48' W 071°24'0 0.3
2017-Dec-07 14:58N 41°48' W 071°24'1 0.1
2017-Dec-07 06:16N 41°47' W 071°23'2 8.5
2017-Dec-07 06:00N 41°45' W 071°22'  
Track history (hours):
 
Tides and Currents Weather Stations Pressure Air Temp Water Temp Dewpoint Dewpoint Depression Visibility Wind Speed Wind Dir Waves Ship Positions

Iona Mcallister

Owner: McAllister Towing & Transportation Co. Inc., Staten Island, NY. More information available from US FCC via Universal Licensing System and Coast Guard Vessel Documentation Center.

Last reported at 2017-Dec-15 19:32 UTC. Time now 2017-Dec-16 05:07 UTC.
Position N 41°49' W 071°24'.

Length 36 m; draft 3 m.

Type: Towing. MMSI: 367149890.

Date/timePositionNaut miles runAvg speedWind from/ knotsBaromVisibWave heightAir tempDewpointWater temp
2017-Dec-15 19:32N 41°49' W 071°24'0 0.1
2017-Dec-15 19:30N 41°49' W 071°24'0 0.0
2017-Dec-15 16:49N 41°49' W 071°24'0 0.0
2017-Dec-15 16:18N 41°49' W 071°24'0 0.0
2017-Dec-15 14:55N 41°49' W 071°24'0 0.0
2017-Dec-15 13:38N 41°49' W 071°24'0 0.0
2017-Dec-15 13:30N 41°49' W 071°24'0 0.0
2017-Dec-15 12:54N 41°49' W 071°24'0 0.0
2017-Dec-15 12:30N 41°49' W 071°24'0 0.0
2017-Dec-15 11:56N 41°49' W 071°24'0 0.0
2017-Dec-15 11:29N 41°49' W 071°24'0 0.0
2017-Dec-15 10:57N 41°49' W 071°24'0 0.0
2017-Dec-15 10:26N 41°49' W 071°24'0 0.0
2017-Dec-15 09:53N 41°49' W 071°24'0 0.0
2017-Dec-15 09:29N 41°49' W 071°24'0 0.0
2017-Dec-15 08:58N 41°49' W 071°24'0 0.0
2017-Dec-15 08:28N 41°49' W 071°24'0 0.0
2017-Dec-15 07:28N 41°49' W 071°24'0 0.0
2017-Dec-15 06:59N 41°49' W 071°24'0 0.0
2017-Dec-15 06:30N 41°49' W 071°24'0 0.0
2017-Dec-15 05:55N 41°49' W 071°24'0 0.0
2017-Dec-15 04:56N 41°49' W 071°24'0 0.0
2017-Dec-15 03:43N 41°49' W 071°24'0 0.0
2017-Dec-15 02:05N 41°49' W 071°24'0 0.0
2017-Dec-15 00:57N 41°49' W 071°24'0 0.0
2017-Dec-15 00:29N 41°49' W 071°24'0 0.0
2017-Dec-14 18:15N 41°49' W 071°24'0 0.3
2017-Dec-14 18:00N 41°49' W 071°24'0 0.0
2017-Dec-14 17:30N 41°49' W 071°24'0 0.0
2017-Dec-14 17:00N 41°49' W 071°24'0 0.0
2017-Dec-14 16:30N 41°49' W 071°24'0 0.0
2017-Dec-14 15:59N 41°49' W 071°24'0 0.0
2017-Dec-14 14:25N 41°49' W 071°24'0 0.0
2017-Dec-14 13:20N 41°49' W 071°24'0 0.0
2017-Dec-14 12:51N 41°49' W 071°24'0 0.0
2017-Dec-14 12:30N 41°49' W 071°24'0 0.0
2017-Dec-14 12:00N 41°49' W 071°24'0 0.0
2017-Dec-14 11:30N 41°49' W 071°24'0 0.0
2017-Dec-14 11:00N 41°49' W 071°24'0 0.0
2017-Dec-14 10:29N 41°49' W 071°24'0 0.0
2017-Dec-14 10:00N 41°49' W 071°24'0 0.0
2017-Dec-14 09:30N 41°49' W 071°24'0 0.0
2017-Dec-14 09:00N 41°49' W 071°24'0 0.0
2017-Dec-14 08:30N 41°49' W 071°24'0 0.0
2017-Dec-14 08:00N 41°49' W 071°24'0 0.0
2017-Dec-14 07:30N 41°49' W 071°24'0 0.0
2017-Dec-14 06:56N 41°49' W 071°24'0 0.0
2017-Dec-14 06:29N 41°49' W 071°24'0 0.0
2017-Dec-14 06:00N 41°49' W 071°24'0 0.0
2017-Dec-14 05:28N 41°49' W 071°24'0 0.0
2017-Dec-14 05:00N 41°49' W 071°24'0 0.0
2017-Dec-14 04:30N 41°49' W 071°24'0 0.0
2017-Dec-14 04:00N 41°49' W 071°24'2 3.5
2017-Dec-14 03:28N 41°47' W 071°23'1 1.4
2017-Dec-14 02:59N 41°47' W 071°22'0 0.0
2017-Dec-14 02:03N 41°47' W 071°22'0 0.0
2017-Dec-14 01:59N 41°47' W 071°22'2 5.2
2017-Dec-14 01:30N 41°49' W 071°24'0 0.0
2017-Dec-14 00:59N 41°49' W 071°24'0 0.0
2017-Dec-14 00:30N 41°49' W 071°24'0 0.0
2017-Dec-13 23:57N 41°49' W 071°24'0 0.0
2017-Dec-13 23:30N 41°49' W 071°24'0 0.0
2017-Dec-13 22:44N 41°49' W 071°24'0 0.0
2017-Dec-13 22:28N 41°49' W 071°24'0 0.0
2017-Dec-13 21:26N 41°49' W 071°24'0 0.0
2017-Dec-13 21:00N 41°49' W 071°24'3 5.6
2017-Dec-13 20:30N 41°46' W 071°22'4 7.6
2017-Dec-13 20:00N 41°43' W 071°20'6 8.3
2017-Dec-13 19:18N 41°37' W 071°23'1 3.8
2017-Dec-13 18:57N 41°37' W 071°24'0 0.0
2017-Dec-13 18:29N 41°37' W 071°24'0 0.0
2017-Dec-13 17:57N 41°37' W 071°24'0 0.0
2017-Dec-13 17:26N 41°37' W 071°24'0 0.0
2017-Dec-13 17:00N 41°37' W 071°24'0 0.0
2017-Dec-13 16:30N 41°37' W 071°24'0 0.0
2017-Dec-13 16:00N 41°37' W 071°24'0 0.0
2017-Dec-13 15:30N 41°37' W 071°24'0 0.0
2017-Dec-13 15:00N 41°37' W 071°24'0 0.0
2017-Dec-13 14:30N 41°37' W 071°24'0 0.0
2017-Dec-13 14:00N 41°37' W 071°24'0 0.2
2017-Dec-13 13:30N 41°37' W 071°24'0 0.0
2017-Dec-13 12:59N 41°37' W 071°24'0 0.0
2017-Dec-13 12:30N 41°37' W 071°24'0 0.0
2017-Dec-13 11:56N 41°37' W 071°24'0 0.3
2017-Dec-13 11:30N 41°37' W 071°24'1 1.0
2017-Dec-13 10:55N 41°36' W 071°24'0 0.8
2017-Dec-13 10:29N 41°36' W 071°24'1 1.2
2017-Dec-13 09:41N 41°37' W 071°24'1 0.0
2017-Dec-12 11:30N 41°36' W 071°24'1 1.1
2017-Dec-12 11:00N 41°37' W 071°24'1 1.3
2017-Dec-12 10:28N 41°36' W 071°24'1 1.5
2017-Dec-12 09:58N 41°37' W 071°24'0 0.0
2017-Dec-12 09:29N 41°37' W 071°24'0 0.0
2017-Dec-12 08:17N 41°37' W 071°24'0 0.0
2017-Dec-12 08:00N 41°37' W 071°24'0 0.0
2017-Dec-12 07:24N 41°37' W 071°24'0 0.0
2017-Dec-12 06:51N 41°37' W 071°24'0 0.0
2017-Dec-12 06:25N 41°37' W 071°24'0 0.0
2017-Dec-12 05:58N 41°37' W 071°24'0 0.0
2017-Dec-12 05:27N 41°37' W 071°24'0 0.0
2017-Dec-12 04:54N 41°37' W 071°24'0 0.0
2017-Dec-12 04:23N 41°37' W 071°24'0 0.0
2017-Dec-12 03:57N 41°37' W 071°24'0 0.0
2017-Dec-12 03:23N 41°37' W 071°24'0 0.0
2017-Dec-12 02:10N 41°37' W 071°24'0 0.0
2017-Dec-12 01:03N 41°37' W 071°24'1 0.0
2017-Dec-11 11:29N 41°36' W 071°24'1 1.3
2017-Dec-11 11:00N 41°37' W 071°24'1 1.4
2017-Dec-11 10:30N 41°36' W 071°24'1 0.1
2017-Dec-10 21:06N 41°35' W 071°24'5 0.4
2017-Dec-10 07:00N 41°37' W 071°18'5 9.1
2017-Dec-10 06:30N 41°42' W 071°19'5 9.2
2017-Dec-10 06:00N 41°45' W 071°23'3 2.0
2017-Dec-10 04:36N 41°48' W 071°24'0 0.0
2017-Dec-09 16:42N 41°48' W 071°23'0 0.0
2017-Dec-09 16:30N 41°48' W 071°23'1 0.1
2017-Dec-09 08:47N 41°47' W 071°23'0 0.7
2017-Dec-09 08:30N 41°47' W 071°22'0 0.0
2017-Dec-08 20:31N 41°47' W 071°22'0 7.7
2017-Dec-08 20:30N 41°47' W 071°22'4 8.7
2017-Dec-08 20:00N 41°43' W 071°20'9 0.4
2017-Dec-07 22:22N 41°34' W 071°19'3 9.5
2017-Dec-07 22:00N 41°38' W 071°18'5 9.3
2017-Dec-07 21:30N 41°42' W 071°20'5 9.1
2017-Dec-07 21:00N 41°46' W 071°22'2 0.4
2017-Dec-07 15:10N 41°48' W 071°24'0 0.3
2017-Dec-07 14:58N 41°48' W 071°24'1 0.1
2017-Dec-07 06:16N 41°47' W 071°23'2 8.5
2017-Dec-07 06:00N 41°45' W 071°22'  

Dump ship's entire track history